YBF weather

Public forecast

Using degrees Celsius for public forecast. Weather courtesy of forecast.io.

Closest aviation weather report (METAR) to Bamfield Seaplane Base

Report is more than 6 hours old.

Closest report is Tofino / Long Beach Airport, 29.3 nm (54.3 km) WNW. Retrieved 2020/08/15 01:00 UTC (7 hours ago):

CYAZ 150100Z 29011KT 15SM SKC 19/13 A3018 RMK LAST STFD OBS/NXT 151300UTC SLP222 DENSITY ALT 300FT

Closest aviation forecast (TAF) to Bamfield Seaplane Base

Forecast is more than 12 hours old.

Closest forecast is Tofino / Long Beach Airport, 29.3 nm (54.3 km) WNW. Retrieved 2020/08/14 19:00 UTC (13 hours ago):

TAF CYAZ 141838Z 1419/1501 30008KT P6SM FEW025 RMK NXT FCST WILL BE ISSUED AT 151445Z